sensor_id;sensor_type;location;lat;lon;timestamp;temperature;humidity
56725;DHT22;42608;52.776;6.968;2024-02-28T00:02:24;2.40;99.90
56725;DHT22;42608;52.776;6.968;2024-02-28T00:04:49;2.40;99.90
56725;DHT22;42608;52.776;6.968;2024-02-28T00:07:15;2.40;99.90
56725;DHT22;42608;52.776;6.968;2024-02-28T00:09:46;2.40;99.90
56725;DHT22;42608;52.776;6.968;2024-02-28T00:12:12;2.40;99.90
56725;DHT22;42608;52.776;6.968;2024-02-28T00:14:38;2.40;99.90
56725;DHT22;42608;52.776;6.968;2024-02-28T00:17:04;2.40;99.90
56725;DHT22;42608;52.776;6.968;2024-02-28T00:19:29;2.40;99.90
56725;DHT22;42608;52.776;6.968;2024-02-28T00:21:55;2.40;99.90
56725;DHT22;42608;52.776;6.968;2024-02-28T00:24:21;2.40;99.90
56725;DHT22;42608;52.776;6.968;2024-02-28T00:26:49;2.40;99.90
56725;DHT22;42608;52.776;6.968;2024-02-28T00:29:15;2.40;99.90
56725;DHT22;42608;52.776;6.968;2024-02-28T00:31:40;2.30;99.90
56725;DHT22;42608;52.776;6.968;2024-02-28T00:34:09;2.30;99.90
56725;DHT22;42608;52.776;6.968;2024-02-28T00:36:37;2.30;99.90
56725;DHT22;42608;52.776;6.968;2024-02-28T00:39:02;2.30;99.90
56725;DHT22;42608;52.776;6.968;2024-02-28T00:41:29;2.30;99.90
56725;DHT22;42608;52.776;6.968;2024-02-28T00:43:54;2.30;99.90
56725;DHT22;42608;52.776;6.968;2024-02-28T00:46:20;2.30;99.90
56725;DHT22;42608;52.776;6.968;2024-02-28T00:48:45;2.20;99.90
56725;DHT22;42608;52.776;6.968;2024-02-28T00:51:11;2.20;99.90
56725;DHT22;42608;52.776;6.968;2024-02-28T00:53:37;2.20;99.90
56725;DHT22;42608;52.776;6.968;2024-02-28T00:56:02;2.20;99.90
56725;DHT22;42608;52.776;6.968;2024-02-28T00:58:31;2.20;99.90
56725;DHT22;42608;52.776;6.968;2024-02-28T01:00:57;2.30;99.90
56725;DHT22;42608;52.776;6.968;2024-02-28T01:03:23;2.30;99.90
56725;DHT22;42608;52.776;6.968;2024-02-28T01:05:49;2.30;99.90
56725;DHT22;42608;52.776;6.968;2024-02-28T01:08:15;2.20;99.90
56725;DHT22;42608;52.776;6.968;2024-02-28T01:10:42;2.20;99.90
56725;DHT22;42608;52.776;6.968;2024-02-28T01:13:08;2.20;99.90
56725;DHT22;42608;52.776;6.968;2024-02-28T01:15:33;2.20;99.90
56725;DHT22;42608;52.776;6.968;2024-02-28T01:17:59;2.20;99.90
56725;DHT22;42608;52.776;6.968;2024-02-28T01:20:25;2.20;99.90
56725;DHT22;42608;52.776;6.968;2024-02-28T01:22:50;2.20;99.90
56725;DHT22;42608;52.776;6.968;2024-02-28T01:25:16;2.20;99.90
56725;DHT22;42608;52.776;6.968;2024-02-28T01:27:41;2.20;99.90
56725;DHT22;42608;52.776;6.968;2024-02-28T01:30:08;2.20;99.90
56725;DHT22;42608;52.776;6.968;2024-02-28T01:32:34;2.20;99.90
56725;DHT22;42608;52.776;6.968;2024-02-28T01:34:59;2.20;99.90
56725;DHT22;42608;52.776;6.968;2024-02-28T01:37:25;2.20;99.90
56725;DHT22;42608;52.776;6.968;2024-02-28T01:39:50;2.20;99.90
56725;DHT22;42608;52.776;6.968;2024-02-28T01:42:16;2.20;99.90
56725;DHT22;42608;52.776;6.968;2024-02-28T01:44:45;2.30;99.90
56725;DHT22;42608;52.776;6.968;2024-02-28T01:47:18;2.20;99.90
56725;DHT22;42608;52.776;6.968;2024-02-28T01:49:44;2.20;99.90
56725;DHT22;42608;52.776;6.968;2024-02-28T01:52:11;2.20;99.90
56725;DHT22;42608;52.776;6.968;2024-02-28T01:54:37;2.20;99.90
56725;DHT22;42608;52.776;6.968;2024-02-28T01:57:03;2.30;99.90
56725;DHT22;42608;52.776;6.968;2024-02-28T01:59:30;2.20;99.90
56725;DHT22;42608;52.776;6.968;2024-02-28T02:01:56;2.30;99.90
56725;DHT22;42608;52.776;6.968;2024-02-28T02:04:22;2.30;99.90
56725;DHT22;42608;52.776;6.968;2024-02-28T02:06:47;2.30;99.90
56725;DHT22;42608;52.776;6.968;2024-02-28T02:09:14;2.30;99.90
56725;DHT22;42608;52.776;6.968;2024-02-28T02:11:40;2.30;99.90
56725;DHT22;42608;52.776;6.968;2024-02-28T02:14:06;2.30;99.90
56725;DHT22;42608;52.776;6.968;2024-02-28T02:16:31;2.30;99.90
56725;DHT22;42608;52.776;6.968;2024-02-28T02:18:57;2.30;99.90
56725;DHT22;42608;52.776;6.968;2024-02-28T02:21:23;2.30;99.90
56725;DHT22;42608;52.776;6.968;2024-02-28T02:23:49;2.30;99.90
56725;DHT22;42608;52.776;6.968;2024-02-28T02:26:15;2.30;99.90
56725;DHT22;42608;52.776;6.968;2024-02-28T02:28:41;2.30;99.90
56725;DHT22;42608;52.776;6.968;2024-02-28T02:31:06;2.30;99.90
56725;DHT22;42608;52.776;6.968;2024-02-28T02:33:32;2.30;99.90
56725;DHT22;42608;52.776;6.968;2024-02-28T02:35:57;2.30;99.90
56725;DHT22;42608;52.776;6.968;2024-02-28T02:38:23;2.30;99.90
56725;DHT22;42608;52.776;6.968;2024-02-28T02:40:52;2.30;99.90
56725;DHT22;42608;52.776;6.968;2024-02-28T02:43:17;2.40;99.90
56725;DHT22;42608;52.776;6.968;2024-02-28T02:45:43;2.40;99.90
56725;DHT22;42608;52.776;6.968;2024-02-28T02:48:09;2.40;99.90
56725;DHT22;42608;52.776;6.968;2024-02-28T02:50:34;2.40;99.90
56725;DHT22;42608;52.776;6.968;2024-02-28T02:53:00;2.40;99.90
56725;DHT22;42608;52.776;6.968;2024-02-28T02:55:27;2.40;99.90
56725;DHT22;42608;52.776;6.968;2024-02-28T02:57:56;2.40;99.90
56725;DHT22;42608;52.776;6.968;2024-02-28T03:00:21;2.40;99.90
56725;DHT22;42608;52.776;6.968;2024-02-28T03:02:47;2.40;99.90
56725;DHT22;42608;52.776;6.968;2024-02-28T03:05:13;2.40;99.90
56725;DHT22;42608;52.776;6.968;2024-02-28T03:07:38;2.40;99.90
56725;DHT22;42608;52.776;6.968;2024-02-28T03:10:04;2.40;99.90
56725;DHT22;42608;52.776;6.968;2024-02-28T03:12:30;2.40;99.90
56725;DHT22;42608;52.776;6.968;2024-02-28T03:14:56;2.40;99.90
56725;DHT22;42608;52.776;6.968;2024-02-28T03:17:22;2.40;99.90
56725;DHT22;42608;52.776;6.968;2024-02-28T03:19:49;2.40;99.90
56725;DHT22;42608;52.776;6.968;2024-02-28T03:22:14;2.40;99.90
56725;DHT22;42608;52.776;6.968;2024-02-28T03:24:40;2.40;99.90
56725;DHT22;42608;52.776;6.968;2024-02-28T03:27:06;2.40;99.90
56725;DHT22;42608;52.776;6.968;2024-02-28T03:29:32;2.40;99.90
56725;DHT22;42608;52.776;6.968;2024-02-28T03:31:58;2.40;99.90
56725;DHT22;42608;52.776;6.968;2024-02-28T03:34:23;2.40;99.90
56725;DHT22;42608;52.776;6.968;2024-02-28T03:36:50;2.40;99.90
56725;DHT22;42608;52.776;6.968;2024-02-28T03:39:15;2.40;99.90
56725;DHT22;42608;52.776;6.968;2024-02-28T03:41:42;2.30;99.90
56725;DHT22;42608;52.776;6.968;2024-02-28T03:44:07;2.40;99.90
56725;DHT22;42608;52.776;6.968;2024-02-28T03:46:33;2.40;99.90
56725;DHT22;42608;52.776;6.968;2024-02-28T03:48:59;2.40;99.90
56725;DHT22;42608;52.776;6.968;2024-02-28T03:51:24;2.40;99.90
56725;DHT22;42608;52.776;6.968;2024-02-28T03:53:50;2.40;99.90
56725;DHT22;42608;52.776;6.968;2024-02-28T03:56:22;2.40;99.90
56725;DHT22;42608;52.776;6.968;2024-02-28T03:58:49;2.40;99.90
56725;DHT22;42608;52.776;6.968;2024-02-28T04:01:15;2.40;99.90
56725;DHT22;42608;52.776;6.968;2024-02-28T04:03:40;2.40;99.90
56725;DHT22;42608;52.776;6.968;2024-02-28T04:06:06;2.40;99.90
56725;DHT22;42608;52.776;6.968;2024-02-28T04:08:33;2.40;99.90
56725;DHT22;42608;52.776;6.968;2024-02-28T04:10:58;2.40;99.90
56725;DHT22;42608;52.776;6.968;2024-02-28T04:13:24;2.40;99.90
56725;DHT22;42608;52.776;6.968;2024-02-28T04:15:49;2.40;99.90
56725;DHT22;42608;52.776;6.968;2024-02-28T04:18:15;2.40;99.90
56725;DHT22;42608;52.776;6.968;2024-02-28T04:20:40;2.40;99.90
56725;DHT22;42608;52.776;6.968;2024-02-28T04:23:06;2.40;99.90
56725;DHT22;42608;52.776;6.968;2024-02-28T04:25:31;2.40;99.90
56725;DHT22;42608;52.776;6.968;2024-02-28T04:27:57;2.50;99.90
56725;DHT22;42608;52.776;6.968;2024-02-28T04:30:23;2.50;99.90
56725;DHT22;42608;52.776;6.968;2024-02-28T04:32:48;2.50;99.90
56725;DHT22;42608;52.776;6.968;2024-02-28T04:35:14;2.50;99.90
56725;DHT22;42608;52.776;6.968;2024-02-28T04:37:47;2.50;99.90
56725;DHT22;42608;52.776;6.968;2024-02-28T04:40:12;2.50;99.90
56725;DHT22;42608;52.776;6.968;2024-02-28T04:42:39;2.50;99.90
56725;DHT22;42608;52.776;6.968;2024-02-28T04:45:04;2.50;99.90
56725;DHT22;42608;52.776;6.968;2024-02-28T04:47:30;2.50;99.90
56725;DHT22;42608;52.776;6.968;2024-02-28T04:49:56;2.40;99.90
56725;DHT22;42608;52.776;6.968;2024-02-28T04:52:32;2.40;99.90
56725;DHT22;42608;52.776;6.968;2024-02-28T04:54:57;2.40;99.90
56725;DHT22;42608;52.776;6.968;2024-02-28T04:57:23;2.40;99.90
56725;DHT22;42608;52.776;6.968;2024-02-28T04:59:48;2.40;99.90
56725;DHT22;42608;52.776;6.968;2024-02-28T05:02:14;2.40;99.90
56725;DHT22;42608;52.776;6.968;2024-02-28T05:04:40;2.40;99.90
56725;DHT22;42608;52.776;6.968;2024-02-28T05:07:05;2.50;99.90
56725;DHT22;42608;52.776;6.968;2024-02-28T05:09:33;2.50;99.90
56725;DHT22;42608;52.776;6.968;2024-02-28T05:12:01;2.50;99.90
56725;DHT22;42608;52.776;6.968;2024-02-28T05:14:27;2.40;99.90
56725;DHT22;42608;52.776;6.968;2024-02-28T05:16:52;2.50;99.90
56725;DHT22;42608;52.776;6.968;2024-02-28T05:19:21;2.50;99.90
56725;DHT22;42608;52.776;6.968;2024-02-28T05:21:46;2.50;99.90
56725;DHT22;42608;52.776;6.968;2024-02-28T05:24:22;2.50;99.90
56725;DHT22;42608;52.776;6.968;2024-02-28T05:26:48;2.50;99.90
56725;DHT22;42608;52.776;6.968;2024-02-28T05:29:13;2.50;99.90
56725;DHT22;42608;52.776;6.968;2024-02-28T05:31:39;2.40;99.90
56725;DHT22;42608;52.776;6.968;2024-02-28T05:34:04;2.50;99.90
56725;DHT22;42608;52.776;6.968;2024-02-28T05:36:30;2.50;99.90
56725;DHT22;42608;52.776;6.968;2024-02-28T05:38:57;2.50;99.90
56725;DHT22;42608;52.776;6.968;2024-02-28T05:41:23;2.50;99.90
56725;DHT22;42608;52.776;6.968;2024-02-28T05:43:48;2.50;99.90
56725;DHT22;42608;52.776;6.968;2024-02-28T05:46:14;2.50;99.90
56725;DHT22;42608;52.776;6.968;2024-02-28T05:48:41;2.50;99.90
56725;DHT22;42608;52.776;6.968;2024-02-28T05:51:06;2.50;99.90
56725;DHT22;42608;52.776;6.968;2024-02-28T05:53:32;2.50;99.90
56725;DHT22;42608;52.776;6.968;2024-02-28T05:56:04;2.50;99.90
56725;DHT22;42608;52.776;6.968;2024-02-28T05:58:30;2.50;99.90
56725;DHT22;42608;52.776;6.968;2024-02-28T06:00:55;2.50;99.90
56725;DHT22;42608;52.776;6.968;2024-02-28T06:03:21;2.50;99.90
56725;DHT22;42608;52.776;6.968;2024-02-28T06:05:47;2.50;99.90
56725;DHT22;42608;52.776;6.968;2024-02-28T06:08:13;2.50;99.90
56725;DHT22;42608;52.776;6.968;2024-02-28T06:10:39;2.50;99.90
56725;DHT22;42608;52.776;6.968;2024-02-28T06:13:07;2.50;99.90
56725;DHT22;42608;52.776;6.968;2024-02-28T06:15:33;2.50;99.90
56725;DHT22;42608;52.776;6.968;2024-02-28T06:17:59;2.50;99.90
56725;DHT22;42608;52.776;6.968;2024-02-28T06:20:26;2.50;99.90
56725;DHT22;42608;52.776;6.968;2024-02-28T06:22:51;2.60;99.90
56725;DHT22;42608;52.776;6.968;2024-02-28T06:25:17;2.60;99.90
56725;DHT22;42608;52.776;6.968;2024-02-28T06:27:48;2.50;99.90
56725;DHT22;42608;52.776;6.968;2024-02-28T06:30:14;2.50;99.90
56725;DHT22;42608;52.776;6.968;2024-02-28T06:32:40;2.60;99.90
56725;DHT22;42608;52.776;6.968;2024-02-28T06:35:08;2.50;99.90
56725;DHT22;42608;52.776;6.968;2024-02-28T06:37:34;2.60;99.90
56725;DHT22;42608;52.776;6.968;2024-02-28T06:40:00;2.50;99.90
56725;DHT22;42608;52.776;6.968;2024-02-28T06:42:28;2.60;99.90
56725;DHT22;42608;52.776;6.968;2024-02-28T06:44:54;2.60;99.90
56725;DHT22;42608;52.776;6.968;2024-02-28T06:47:19;2.60;99.90
56725;DHT22;42608;52.776;6.968;2024-02-28T06:49:45;2.60;99.90
56725;DHT22;42608;52.776;6.968;2024-02-28T06:52:11;2.60;99.90
56725;DHT22;42608;52.776;6.968;2024-02-28T06:54:40;2.60;99.90
56725;DHT22;42608;52.776;6.968;2024-02-28T06:57:07;2.60;99.90
56725;DHT22;42608;52.776;6.968;2024-02-28T06:59:33;2.60;99.90
56725;DHT22;42608;52.776;6.968;2024-02-28T07:01:58;2.60;99.90
56725;DHT22;42608;52.776;6.968;2024-02-28T07:04:24;2.60;99.90
56725;DHT22;42608;52.776;6.968;2024-02-28T07:06:50;2.70;99.90
56725;DHT22;42608;52.776;6.968;2024-02-28T07:09:15;2.60;99.90
56725;DHT22;42608;52.776;6.968;2024-02-28T07:11:41;2.70;99.90
56725;DHT22;42608;52.776;6.968;2024-02-28T07:14:07;2.60;99.90
56725;DHT22;42608;52.776;6.968;2024-02-28T07:16:33;2.70;99.90
56725;DHT22;42608;52.776;6.968;2024-02-28T07:19:03;2.70;99.90
56725;DHT22;42608;52.776;6.968;2024-02-28T07:21:28;2.70;99.90
56725;DHT22;42608;52.776;6.968;2024-02-28T07:23:55;2.70;99.90
56725;DHT22;42608;52.776;6.968;2024-02-28T07:26:21;2.70;99.90
56725;DHT22;42608;52.776;6.968;2024-02-28T07:28:47;2.70;99.90
56725;DHT22;42608;52.776;6.968;2024-02-28T07:31:15;2.80;99.90
56725;DHT22;42608;52.776;6.968;2024-02-28T07:33:41;2.80;99.90
56725;DHT22;42608;52.776;6.968;2024-02-28T07:36:06;2.80;99.90
56725;DHT22;42608;52.776;6.968;2024-02-28T07:38:32;2.80;99.90
56725;DHT22;42608;52.776;6.968;2024-02-28T07:40:58;2.80;99.90
56725;DHT22;42608;52.776;6.968;2024-02-28T07:43:23;2.80;99.90
56725;DHT22;42608;52.776;6.968;2024-02-28T07:45:49;2.80;99.90
56725;DHT22;42608;52.776;6.968;2024-02-28T07:48:15;2.90;99.90
56725;DHT22;42608;52.776;6.968;2024-02-28T07:50:46;2.90;99.90
56725;DHT22;42608;52.776;6.968;2024-02-28T07:53:12;2.90;99.90
56725;DHT22;42608;52.776;6.968;2024-02-28T07:55:38;2.90;99.90
56725;DHT22;42608;52.776;6.968;2024-02-28T07:58:06;2.90;99.90
56725;DHT22;42608;52.776;6.968;2024-02-28T08:00:32;2.90;99.90
56725;DHT22;42608;52.776;6.968;2024-02-28T08:03:01;2.90;99.90
56725;DHT22;42608;52.776;6.968;2024-02-28T08:05:26;2.90;99.90
56725;DHT22;42608;52.776;6.968;2024-02-28T08:07:52;2.90;99.90
56725;DHT22;42608;52.776;6.968;2024-02-28T08:10:20;3.00;99.90
56725;DHT22;42608;52.776;6.968;2024-02-28T08:12:52;3.00;99.90
56725;DHT22;42608;52.776;6.968;2024-02-28T08:15:17;3.00;99.90
56725;DHT22;42608;52.776;6.968;2024-02-28T08:17:43;3.00;99.90
56725;DHT22;42608;52.776;6.968;2024-02-28T08:20:09;3.00;99.90
56725;DHT22;42608;52.776;6.968;2024-02-28T08:22:35;3.10;99.90
56725;DHT22;42608;52.776;6.968;2024-02-28T08:25:00;3.10;99.90
56725;DHT22;42608;52.776;6.968;2024-02-28T08:27:26;3.10;99.90
56725;DHT22;42608;52.776;6.968;2024-02-28T08:29:51;3.10;99.90
56725;DHT22;42608;52.776;6.968;2024-02-28T08:32:17;3.10;99.90
56725;DHT22;42608;52.776;6.968;2024-02-28T08:34:44;3.20;99.90
56725;DHT22;42608;52.776;6.968;2024-02-28T08:37:10;3.20;99.90
56725;DHT22;42608;52.776;6.968;2024-02-28T08:39:36;3.20;99.90
56725;DHT22;42608;52.776;6.968;2024-02-28T08:42:01;3.30;99.90
56725;DHT22;42608;52.776;6.968;2024-02-28T08:44:27;3.20;99.90
56725;DHT22;42608;52.776;6.968;2024-02-28T08:46:52;3.30;99.90
56725;DHT22;42608;52.776;6.968;2024-02-28T08:49:21;3.30;99.90
56725;DHT22;42608;52.776;6.968;2024-02-28T08:51:46;3.30;99.90
56725;DHT22;42608;52.776;6.968;2024-02-28T08:54:12;3.30;99.90
56725;DHT22;42608;52.776;6.968;2024-02-28T08:56:37;3.30;99.90
56725;DHT22;42608;52.776;6.968;2024-02-28T08:59:03;3.40;99.90
56725;DHT22;42608;52.776;6.968;2024-02-28T09:01:29;3.40;99.90
56725;DHT22;42608;52.776;6.968;2024-02-28T09:03:54;3.40;99.90
56725;DHT22;42608;52.776;6.968;2024-02-28T09:06:20;3.40;99.90
56725;DHT22;42608;52.776;6.968;2024-02-28T09:08:45;3.50;99.90
56725;DHT22;42608;52.776;6.968;2024-02-28T09:11:11;3.50;99.90
56725;DHT22;42608;52.776;6.968;2024-02-28T09:13:37;3.50;99.90
56725;DHT22;42608;52.776;6.968;2024-02-28T09:16:03;3.60;99.90
56725;DHT22;42608;52.776;6.968;2024-02-28T09:18:29;3.60;99.90
56725;DHT22;42608;52.776;6.968;2024-02-28T09:20:54;3.60;99.90
56725;DHT22;42608;52.776;6.968;2024-02-28T09:23:20;3.60;99.90
56725;DHT22;42608;52.776;6.968;2024-02-28T09:25:46;3.70;99.90
56725;DHT22;42608;52.776;6.968;2024-02-28T09:28:13;3.70;99.90
56725;DHT22;42608;52.776;6.968;2024-02-28T09:30:41;3.70;99.90
56725;DHT22;42608;52.776;6.968;2024-02-28T09:33:07;3.80;99.90
56725;DHT22;42608;52.776;6.968;2024-02-28T09:35:34;3.80;99.90
56725;DHT22;42608;52.776;6.968;2024-02-28T09:38:01;3.90;99.90
56725;DHT22;42608;52.776;6.968;2024-02-28T09:40:27;3.90;99.90
56725;DHT22;42608;52.776;6.968;2024-02-28T09:42:53;3.90;99.90
56725;DHT22;42608;52.776;6.968;2024-02-28T09:45:21;4.00;99.90
56725;DHT22;42608;52.776;6.968;2024-02-28T09:47:48;4.00;99.90
56725;DHT22;42608;52.776;6.968;2024-02-28T09:50:13;4.10;99.90
56725;DHT22;42608;52.776;6.968;2024-02-28T09:52:39;4.10;99.90
56725;DHT22;42608;52.776;6.968;2024-02-28T09:55:05;4.10;99.90
56725;DHT22;42608;52.776;6.968;2024-02-28T09:57:31;4.20;99.90
56725;DHT22;42608;52.776;6.968;2024-02-28T09:59:57;4.30;99.90
56725;DHT22;42608;52.776;6.968;2024-02-28T10:02:24;4.20;99.90
56725;DHT22;42608;52.776;6.968;2024-02-28T10:04:50;4.30;99.90
56725;DHT22;42608;52.776;6.968;2024-02-28T10:07:17;4.30;99.90
56725;DHT22;42608;52.776;6.968;2024-02-28T10:09:42;4.40;99.90
56725;DHT22;42608;52.776;6.968;2024-02-28T10:12:08;4.40;99.90
56725;DHT22;42608;52.776;6.968;2024-02-28T10:14:33;4.50;99.90
56725;DHT22;42608;52.776;6.968;2024-02-28T10:16:59;4.50;99.90
56725;DHT22;42608;52.776;6.968;2024-02-28T10:19:25;4.60;99.90
56725;DHT22;42608;52.776;6.968;2024-02-28T10:21:53;4.70;99.90
56725;DHT22;42608;52.776;6.968;2024-02-28T10:24:18;4.70;99.90
56725;DHT22;42608;52.776;6.968;2024-02-28T10:26:44;4.70;99.90
56725;DHT22;42608;52.776;6.968;2024-02-28T10:29:10;4.80;99.90
56725;DHT22;42608;52.776;6.968;2024-02-28T10:31:36;4.90;99.90
56725;DHT22;42608;52.776;6.968;2024-02-28T10:34:02;5.00;99.90
56725;DHT22;42608;52.776;6.968;2024-02-28T10:36:29;5.10;99.90
56725;DHT22;42608;52.776;6.968;2024-02-28T10:38:59;5.10;99.90
56725;DHT22;42608;52.776;6.968;2024-02-28T10:41:28;5.20;99.90
56725;DHT22;42608;52.776;6.968;2024-02-28T10:43:53;5.30;99.90
56725;DHT22;42608;52.776;6.968;2024-02-28T10:46:22;5.30;99.90
56725;DHT22;42608;52.776;6.968;2024-02-28T10:48:49;5.40;99.90
56725;DHT22;42608;52.776;6.968;2024-02-28T10:51:15;5.40;99.90
56725;DHT22;42608;52.776;6.968;2024-02-28T10:53:41;5.40;99.90
56725;DHT22;42608;52.776;6.968;2024-02-28T10:56:09;5.50;99.90
56725;DHT22;42608;52.776;6.968;2024-02-28T10:58:36;5.50;99.90
56725;DHT22;42608;52.776;6.968;2024-02-28T11:01:02;5.60;99.90
56725;DHT22;42608;52.776;6.968;2024-02-28T11:03:28;5.60;99.90
56725;DHT22;42608;52.776;6.968;2024-02-28T11:05:53;5.60;99.90
56725;DHT22;42608;52.776;6.968;2024-02-28T11:08:20;5.70;99.90
56725;DHT22;42608;52.776;6.968;2024-02-28T11:10:46;5.70;99.90
56725;DHT22;42608;52.776;6.968;2024-02-28T11:13:26;5.70;99.90
56725;DHT22;42608;52.776;6.968;2024-02-28T11:15:52;5.80;99.90
56725;DHT22;42608;52.776;6.968;2024-02-28T11:18:20;5.80;99.90
56725;DHT22;42608;52.776;6.968;2024-02-28T11:20:46;5.90;99.90
56725;DHT22;42608;52.776;6.968;2024-02-28T11:23:13;5.90;99.90
56725;DHT22;42608;52.776;6.968;2024-02-28T11:25:42;5.90;99.90
56725;DHT22;42608;52.776;6.968;2024-02-28T11:28:08;6.00;99.90
56725;DHT22;42608;52.776;6.968;2024-02-28T11:30:34;6.10;99.90
56725;DHT22;42608;52.776;6.968;2024-02-28T11:32:59;6.10;99.90
56725;DHT22;42608;52.776;6.968;2024-02-28T11:35:26;6.10;99.90
56725;DHT22;42608;52.776;6.968;2024-02-28T11:37:52;6.20;99.90
56725;DHT22;42608;52.776;6.968;2024-02-28T11:40:22;6.20;99.90
56725;DHT22;42608;52.776;6.968;2024-02-28T11:42:48;6.30;99.90
56725;DHT22;42608;52.776;6.968;2024-02-28T11:45:14;6.30;99.90
56725;DHT22;42608;52.776;6.968;2024-02-28T11:47:39;6.40;99.90
56725;DHT22;42608;52.776;6.968;2024-02-28T11:50:05;6.40;99.90
56725;DHT22;42608;52.776;6.968;2024-02-28T11:52:31;6.50;99.90
56725;DHT22;42608;52.776;6.968;2024-02-28T11:54:57;6.50;99.90
56725;DHT22;42608;52.776;6.968;2024-02-28T11:57:23;6.50;99.90
56725;DHT22;42608;52.776;6.968;2024-02-28T11:59:48;6.60;99.90
56725;DHT22;42608;52.776;6.968;2024-02-28T12:02:16;6.60;99.90
56725;DHT22;42608;52.776;6.968;2024-02-28T12:04:42;6.60;99.90
56725;DHT22;42608;52.776;6.968;2024-02-28T12:07:08;6.60;99.90
56725;DHT22;42608;52.776;6.968;2024-02-28T12:09:34;6.60;99.90
56725;DHT22;42608;52.776;6.968;2024-02-28T12:12:03;6.60;99.90
56725;DHT22;42608;52.776;6.968;2024-02-28T12:14:31;6.60;99.90
56725;DHT22;42608;52.776;6.968;2024-02-28T12:16:57;6.60;99.90
56725;DHT22;42608;52.776;6.968;2024-02-28T12:19:23;6.60;99.90
56725;DHT22;42608;52.776;6.968;2024-02-28T12:21:49;6.60;99.90
56725;DHT22;42608;52.776;6.968;2024-02-28T12:24:14;6.70;99.90
56725;DHT22;42608;52.776;6.968;2024-02-28T12:26:40;6.70;99.90
56725;DHT22;42608;52.776;6.968;2024-02-28T12:29:06;6.70;99.90
56725;DHT22;42608;52.776;6.968;2024-02-28T12:31:43;6.70;99.90
56725;DHT22;42608;52.776;6.968;2024-02-28T12:34:09;6.70;99.90
56725;DHT22;42608;52.776;6.968;2024-02-28T12:36:37;6.70;99.90
56725;DHT22;42608;52.776;6.968;2024-02-28T12:39:03;6.70;99.90
56725;DHT22;42608;52.776;6.968;2024-02-28T12:41:31;6.80;99.90
56725;DHT22;42608;52.776;6.968;2024-02-28T12:43:56;6.80;99.90
56725;DHT22;42608;52.776;6.968;2024-02-28T12:46:22;6.80;99.90
56725;DHT22;42608;52.776;6.968;2024-02-28T12:48:48;6.80;99.90
56725;DHT22;42608;52.776;6.968;2024-02-28T12:51:20;6.80;99.90
56725;DHT22;42608;52.776;6.968;2024-02-28T12:53:52;6.90;99.90
56725;DHT22;42608;52.776;6.968;2024-02-28T12:56:17;6.90;99.90
56725;DHT22;42608;52.776;6.968;2024-02-28T12:58:43;6.90;99.90
56725;DHT22;42608;52.776;6.968;2024-02-28T13:01:09;6.90;99.90
56725;DHT22;42608;52.776;6.968;2024-02-28T13:03:34;6.90;99.90
56725;DHT22;42608;52.776;6.968;2024-02-28T13:06:01;6.90;99.90
56725;DHT22;42608;52.776;6.968;2024-02-28T13:08:27;7.00;99.90
56725;DHT22;42608;52.776;6.968;2024-02-28T13:10:52;7.00;99.90
56725;DHT22;42608;52.776;6.968;2024-02-28T13:13:18;7.00;99.90
56725;DHT22;42608;52.776;6.968;2024-02-28T13:15:46;7.00;99.90
56725;DHT22;42608;52.776;6.968;2024-02-28T13:18:12;7.00;99.90
56725;DHT22;42608;52.776;6.968;2024-02-28T13:20:37;7.00;99.90
56725;DHT22;42608;52.776;6.968;2024-02-28T13:23:05;7.00;99.90
56725;DHT22;42608;52.776;6.968;2024-02-28T13:25:30;7.00;99.90
56725;DHT22;42608;52.776;6.968;2024-02-28T13:27:56;7.00;99.90
56725;DHT22;42608;52.776;6.968;2024-02-28T13:30:21;7.00;99.90
56725;DHT22;42608;52.776;6.968;2024-02-28T13:32:47;7.00;99.90
56725;DHT22;42608;52.776;6.968;2024-02-28T13:35:13;7.00;99.90
56725;DHT22;42608;52.776;6.968;2024-02-28T13:37:40;7.10;99.90
56725;DHT22;42608;52.776;6.968;2024-02-28T13:40:06;7.10;99.90
56725;DHT22;42608;52.776;6.968;2024-02-28T13:42:32;7.10;99.90
56725;DHT22;42608;52.776;6.968;2024-02-28T13:44:58;7.10;99.90
56725;DHT22;42608;52.776;6.968;2024-02-28T13:47:23;7.10;99.90
56725;DHT22;42608;52.776;6.968;2024-02-28T13:49:49;7.10;99.90
56725;DHT22;42608;52.776;6.968;2024-02-28T13:52:15;7.00;99.90
56725;DHT22;42608;52.776;6.968;2024-02-28T13:54:41;7.10;99.90
56725;DHT22;42608;52.776;6.968;2024-02-28T13:57:06;7.10;99.90
56725;DHT22;42608;52.776;6.968;2024-02-28T13:59:32;7.10;99.90
56725;DHT22;42608;52.776;6.968;2024-02-28T14:01:58;7.10;99.90
56725;DHT22;42608;52.776;6.968;2024-02-28T14:04:25;7.20;99.90
56725;DHT22;42608;52.776;6.968;2024-02-28T14:06:50;7.10;99.90
56725;DHT22;42608;52.776;6.968;2024-02-28T14:09:19;7.10;99.90
56725;DHT22;42608;52.776;6.968;2024-02-28T14:11:44;7.20;99.90
56725;DHT22;42608;52.776;6.968;2024-02-28T14:14:12;7.30;99.90
56725;DHT22;42608;52.776;6.968;2024-02-28T14:16:37;7.20;99.90
56725;DHT22;42608;52.776;6.968;2024-02-28T14:19:03;7.30;99.90
56725;DHT22;42608;52.776;6.968;2024-02-28T14:21:29;7.30;99.90
56725;DHT22;42608;52.776;6.968;2024-02-28T14:23:55;7.30;99.90
56725;DHT22;42608;52.776;6.968;2024-02-28T14:26:20;7.30;99.90
56725;DHT22;42608;52.776;6.968;2024-02-28T14:28:48;7.30;99.90
56725;DHT22;42608;52.776;6.968;2024-02-28T14:31:14;7.30;99.90
56725;DHT22;42608;52.776;6.968;2024-02-28T14:33:40;7.30;99.90
56725;DHT22;42608;52.776;6.968;2024-02-28T14:36:05;7.30;99.90
56725;DHT22;42608;52.776;6.968;2024-02-28T14:38:31;7.30;99.90
56725;DHT22;42608;52.776;6.968;2024-02-28T14:40:56;7.30;99.90
56725;DHT22;42608;52.776;6.968;2024-02-28T14:43:22;7.40;99.90
56725;DHT22;42608;52.776;6.968;2024-02-28T14:45:48;7.40;99.90
56725;DHT22;42608;52.776;6.968;2024-02-28T14:48:20;7.30;99.90
56725;DHT22;42608;52.776;6.968;2024-02-28T14:50:47;7.30;99.90
56725;DHT22;42608;52.776;6.968;2024-02-28T14:53:13;7.30;99.90
56725;DHT22;42608;52.776;6.968;2024-02-28T14:55:41;7.30;99.90
56725;DHT22;42608;52.776;6.968;2024-02-28T14:58:10;7.30;99.90
56725;DHT22;42608;52.776;6.968;2024-02-28T15:00:35;7.40;99.90
56725;DHT22;42608;52.776;6.968;2024-02-28T15:03:01;7.40;99.90
56725;DHT22;42608;52.776;6.968;2024-02-28T15:05:26;7.30;99.90
56725;DHT22;42608;52.776;6.968;2024-02-28T15:07:52;7.40;99.90
56725;DHT22;42608;52.776;6.968;2024-02-28T15:10:20;7.30;99.90
56725;DHT22;42608;52.776;6.968;2024-02-28T15:12:45;7.40;99.90
56725;DHT22;42608;52.776;6.968;2024-02-28T15:15:11;7.40;99.90
56725;DHT22;42608;52.776;6.968;2024-02-28T15:17:37;7.40;99.90
56725;DHT22;42608;52.776;6.968;2024-02-28T15:20:03;7.40;99.90
56725;DHT22;42608;52.776;6.968;2024-02-28T15:22:29;7.40;99.90
56725;DHT22;42608;52.776;6.968;2024-02-28T15:24:55;7.40;99.90
56725;DHT22;42608;52.776;6.968;2024-02-28T15:27:20;7.40;99.90
56725;DHT22;42608;52.776;6.968;2024-02-28T15:29:46;7.40;99.90
56725;DHT22;42608;52.776;6.968;2024-02-28T15:32:12;7.40;99.90
56725;DHT22;42608;52.776;6.968;2024-02-28T15:34:37;7.40;99.90
56725;DHT22;42608;52.776;6.968;2024-02-28T15:37:03;7.50;99.90
56725;DHT22;42608;52.776;6.968;2024-02-28T15:39:29;7.40;99.90